sensor_id;sensor_type;location;lat;lon;timestamp;pressure;altitude;pressure_sealevel;temperature;humidity
41250;BME280;26984;59.928;30.306;2023-02-15T00:01:28;102526.72;;;0.91;100.00
41250;BME280;26984;59.928;30.306;2023-02-15T00:03:55;102525.69;;;0.94;100.00
41250;BME280;26984;59.928;30.306;2023-02-15T00:06:23;102519.31;;;0.97;100.00
41250;BME280;26984;59.928;30.306;2023-02-15T00:08:50;102520.66;;;1.02;100.00
41250;BME280;26984;59.928;30.306;2023-02-15T00:11:18;102510.69;;;1.06;100.00
41250;BME280;26984;59.928;30.306;2023-02-15T00:14:07;102519.28;;;1.22;100.00
41250;BME280;26984;59.928;30.306;2023-02-15T00:16:35;102513.84;;;1.24;100.00
41250;BME280;26984;59.928;30.306;2023-02-15T00:19:03;102510.38;;;1.10;100.00
41250;BME280;26984;59.928;30.306;2023-02-15T00:21:31;102508.88;;;1.06;100.00
41250;BME280;26984;59.928;30.306;2023-02-15T00:23:59;102513.75;;;1.12;100.00
41250;BME280;26984;59.928;30.306;2023-02-15T00:26:27;102523.63;;;1.23;100.00
41250;BME280;26984;59.928;30.306;2023-02-15T00:28:55;102522.13;;;1.32;100.00
41250;BME280;26984;59.928;30.306;2023-02-15T00:31:28;102516.69;;;1.33;100.00
41250;BME280;26984;59.928;30.306;2023-02-15T00:34:00;102518.72;;;1.30;100.00
41250;BME280;26984;59.928;30.306;2023-02-15T00:36:27;102509.41;;;1.11;100.00
41250;BME280;26984;59.928;30.306;2023-02-15T00:38:55;102508.03;;;1.06;100.00
41250;BME280;26984;59.928;30.306;2023-02-15T00:41:22;102506.25;;;0.93;100.00
41250;BME280;26984;59.928;30.306;2023-02-15T00:43:50;102506.56;;;0.89;100.00
41250;BME280;26984;59.928;30.306;2023-02-15T00:46:17;102514.22;;;0.81;100.00
41250;BME280;26984;59.928;30.306;2023-02-15T00:48:46;102514.97;;;0.83;100.00
41250;BME280;26984;59.928;30.306;2023-02-15T00:51:14;102504.44;;;0.81;100.00
41250;BME280;26984;59.928;30.306;2023-02-15T00:53:43;102510.59;;;0.82;100.00
41250;BME280;26984;59.928;30.306;2023-02-15T00:56:11;102501.56;;;0.84;100.00
41250;BME280;26984;59.928;30.306;2023-02-15T00:58:38;102500.63;;;0.85;100.00
41250;BME280;26984;59.928;30.306;2023-02-15T01:01:09;102498.72;;;0.87;100.00
41250;BME280;26984;59.928;30.306;2023-02-15T01:03:37;102498.19;;;0.82;100.00
41250;BME280;26984;59.928;30.306;2023-02-15T01:06:06;102500.94;;;0.81;100.00
41250;BME280;26984;59.928;30.306;2023-02-15T01:08:34;102499.13;;;0.81;100.00
41250;BME280;26984;59.928;30.306;2023-02-15T01:11:03;102507.53;;;0.88;100.00
41250;BME280;26984;59.928;30.306;2023-02-15T01:13:30;102514.72;;;0.99;100.00
41250;BME280;26984;59.928;30.306;2023-02-15T01:15:58;102516.19;;;1.03;100.00
41250;BME280;26984;59.928;30.306;2023-02-15T01:18:26;102504.44;;;1.07;100.00
41250;BME280;26984;59.928;30.306;2023-02-15T01:20:55;102504.81;;;1.13;100.00
41250;BME280;26984;59.928;30.306;2023-02-15T01:23:24;102513.13;;;1.22;100.00
41250;BME280;26984;59.928;30.306;2023-02-15T01:25:52;102504.59;;;1.29;100.00
41250;BME280;26984;59.928;30.306;2023-02-15T01:28:19;102489.06;;;1.36;100.00
41250;BME280;26984;59.928;30.306;2023-02-15T01:30:47;102491.19;;;1.43;100.00
41250;BME280;26984;59.928;30.306;2023-02-15T01:33:16;102484.69;;;1.48;100.00
41250;BME280;26984;59.928;30.306;2023-02-15T01:35:44;102481.59;;;1.54;100.00
41250;BME280;26984;59.928;30.306;2023-02-15T01:38:14;102478.34;;;1.61;100.00
41250;BME280;26984;59.928;30.306;2023-02-15T01:40:43;102488.00;;;1.62;100.00
41250;BME280;26984;59.928;30.306;2023-02-15T01:43:12;102485.13;;;1.65;100.00
41250;BME280;26984;59.928;30.306;2023-02-15T01:45:39;102497.00;;;1.73;100.00
41250;BME280;26984;59.928;30.306;2023-02-15T01:48:14;102490.09;;;1.70;100.00
41250;BME280;26984;59.928;30.306;2023-02-15T01:50:46;102491.81;;;1.71;100.00
41250;BME280;26984;59.928;30.306;2023-02-15T01:53:17;102483.50;;;1.76;100.00
41250;BME280;26984;59.928;30.306;2023-02-15T01:55:49;102491.97;;;1.81;100.00
41250;BME280;26984;59.928;30.306;2023-02-15T01:58:17;102490.06;;;1.83;100.00
41250;BME280;26984;59.928;30.306;2023-02-15T02:00:45;102479.22;;;1.86;100.00
41250;BME280;26984;59.928;30.306;2023-02-15T02:03:13;102482.34;;;1.91;100.00
41250;BME280;26984;59.928;30.306;2023-02-15T02:05:40;102470.66;;;1.94;100.00
41250;BME280;26984;59.928;30.306;2023-02-15T02:08:08;102474.91;;;1.96;100.00
41250;BME280;26984;59.928;30.306;2023-02-15T02:10:36;102472.97;;;1.98;100.00
41250;BME280;26984;59.928;30.306;2023-02-15T02:13:05;102468.47;;;1.99;100.00
41250;BME280;26984;59.928;30.306;2023-02-15T02:15:38;102470.19;;;2.00;100.00
41250;BME280;26984;59.928;30.306;2023-02-15T02:18:20;102472.88;;;2.00;100.00
41250;BME280;26984;59.928;30.306;2023-02-15T02:20:58;102475.38;;;2.01;100.00
41250;BME280;26984;59.928;30.306;2023-02-15T02:23:30;102475.16;;;2.04;100.00
41250;BME280;26984;59.928;30.306;2023-02-15T02:31:44;102466.84;;;2.09;100.00
41250;BME280;26984;59.928;30.306;2023-02-15T02:34:18;102466.59;;;2.12;100.00
41250;BME280;26984;59.928;30.306;2023-02-15T02:36:50;102459.25;;;2.15;100.00
41250;BME280;26984;59.928;30.306;2023-02-15T02:39:22;102460.22;;;2.14;100.00
41250;BME280;26984;59.928;30.306;2023-02-15T02:41:53;102456.34;;;2.19;100.00
41250;BME280;26984;59.928;30.306;2023-02-15T02:44:24;102454.75;;;2.16;100.00
41250;BME280;26984;59.928;30.306;2023-02-15T02:46:53;102461.66;;;2.19;100.00
41250;BME280;26984;59.928;30.306;2023-02-15T02:49:34;102460.22;;;2.14;100.00
41250;BME280;26984;59.928;30.306;2023-02-15T02:52:02;102460.81;;;2.18;100.00
41250;BME280;26984;59.928;30.306;2023-02-15T02:54:32;102464.72;;;2.25;100.00
41250;BME280;26984;59.928;30.306;2023-02-15T02:57:01;102465.25;;;2.06;100.00
41250;BME280;26984;59.928;30.306;2023-02-15T02:59:31;102465.50;;;2.03;100.00
41250;BME280;26984;59.928;30.306;2023-02-15T03:02:01;102462.25;;;2.11;100.00
41250;BME280;26984;59.928;30.306;2023-02-15T03:04:32;102466.00;;;2.08;100.00
41250;BME280;26984;59.928;30.306;2023-02-15T03:07:04;102453.06;;;2.04;100.00
41250;BME280;26984;59.928;30.306;2023-02-15T03:09:34;102453.25;;;1.89;100.00
41250;BME280;26984;59.928;30.306;2023-02-15T03:12:08;102451.44;;;1.90;100.00
41250;BME280;26984;59.928;30.306;2023-02-15T03:14:41;102441.25;;;1.84;100.00
41250;BME280;26984;59.928;30.306;2023-02-15T03:17:11;102452.22;;;1.79;100.00
41250;BME280;26984;59.928;30.306;2023-02-15T03:19:39;102448.00;;;1.77;100.00
41250;BME280;26984;59.928;30.306;2023-02-15T03:22:11;102453.25;;;1.65;100.00
41250;BME280;26984;59.928;30.306;2023-02-15T03:24:41;102447.66;;;1.57;100.00
41250;BME280;26984;59.928;30.306;2023-02-15T03:27:11;102434.69;;;1.53;100.00
41250;BME280;26984;59.928;30.306;2023-02-15T03:29:44;102450.31;;;1.57;100.00
41250;BME280;26984;59.928;30.306;2023-02-15T03:32:13;102435.84;;;1.61;100.00
41250;BME280;26984;59.928;30.306;2023-02-15T03:34:41;102450.59;;;1.65;100.00
41250;BME280;26984;59.928;30.306;2023-02-15T03:37:11;102436.03;;;1.71;100.00
41250;BME280;26984;59.928;30.306;2023-02-15T03:39:42;102441.97;;;1.75;100.00
41250;BME280;26984;59.928;30.306;2023-02-15T03:42:13;102440.06;;;1.88;100.00
41250;BME280;26984;59.928;30.306;2023-02-15T03:44:46;102442.03;;;1.97;100.00
41250;BME280;26984;59.928;30.306;2023-02-15T03:47:16;102454.19;;;1.88;100.00
41250;BME280;26984;59.928;30.306;2023-02-15T03:49:45;102448.88;;;1.88;100.00
41250;BME280;26984;59.928;30.306;2023-02-15T03:52:17;102441.63;;;1.90;100.00
41250;BME280;26984;59.928;30.306;2023-02-15T03:54:45;102442.63;;;1.89;100.00
41250;BME280;26984;59.928;30.306;2023-02-15T03:57:14;102437.28;;;1.89;100.00
41250;BME280;26984;59.928;30.306;2023-02-15T03:59:59;102442.38;;;1.92;100.00
41250;BME280;26984;59.928;30.306;2023-02-15T04:02:46;102441.59;;;1.79;100.00
41250;BME280;26984;59.928;30.306;2023-02-15T04:05:19;102444.03;;;1.82;100.00
41250;BME280;26984;59.928;30.306;2023-02-15T04:07:48;102438.84;;;1.92;100.00
41250;BME280;26984;59.928;30.306;2023-02-15T04:10:16;102448.53;;;1.93;100.00
41250;BME280;26984;59.928;30.306;2023-02-15T04:13:00;102444.16;;;1.92;100.00
41250;BME280;26984;59.928;30.306;2023-02-15T04:15:28;102448.41;;;1.95;100.00
41250;BME280;26984;59.928;30.306;2023-02-15T04:18:13;102441.88;;;1.87;100.00
41250;BME280;26984;59.928;30.306;2023-02-15T04:20:42;102454.81;;;1.92;100.00
41250;BME280;26984;59.928;30.306;2023-02-15T04:23:28;102447.09;;;1.89;100.00
41250;BME280;26984;59.928;30.306;2023-02-15T04:26:13;102447.19;;;1.87;100.00
41250;BME280;26984;59.928;30.306;2023-02-15T04:28:41;102450.38;;;1.92;100.00
41250;BME280;26984;59.928;30.306;2023-02-15T04:31:08;102456.28;;;1.96;100.00
41250;BME280;26984;59.928;30.306;2023-02-15T04:33:35;102457.97;;;1.97;100.00
41250;BME280;26984;59.928;30.306;2023-02-15T04:36:03;102445.41;;;1.99;100.00
41250;BME280;26984;59.928;30.306;2023-02-15T04:38:32;102444.69;;;1.97;100.00
41250;BME280;26984;59.928;30.306;2023-02-15T04:41:00;102452.75;;;1.96;100.00
41250;BME280;26984;59.928;30.306;2023-02-15T04:43:27;102452.31;;;2.02;100.00
41250;BME280;26984;59.928;30.306;2023-02-15T04:45:54;102446.16;;;2.01;100.00
41250;BME280;26984;59.928;30.306;2023-02-15T04:48:22;102455.19;;;1.99;100.00
41250;BME280;26984;59.928;30.306;2023-02-15T04:50:49;102454.88;;;2.03;100.00
41250;BME280;26984;59.928;30.306;2023-02-15T04:53:18;102454.47;;;1.97;100.00
41250;BME280;26984;59.928;30.306;2023-02-15T04:55:47;102443.63;;;2.00;100.00
41250;BME280;26984;59.928;30.306;2023-02-15T04:58:14;102442.13;;;1.96;100.00
41250;BME280;26984;59.928;30.306;2023-02-15T05:00:42;102448.31;;;1.96;100.00
41250;BME280;26984;59.928;30.306;2023-02-15T05:03:09;102446.38;;;1.98;100.00
41250;BME280;26984;59.928;30.306;2023-02-15T05:05:37;102448.00;;;2.12;100.00
41250;BME280;26984;59.928;30.306;2023-02-15T05:08:04;102445.22;;;2.13;100.00
41250;BME280;26984;59.928;30.306;2023-02-15T05:10:32;102455.34;;;2.08;100.00
41250;BME280;26984;59.928;30.306;2023-02-15T05:13:00;102459.59;;;2.11;100.00
41250;BME280;26984;59.928;30.306;2023-02-15T05:15:28;102451.94;;;2.06;100.00
41250;BME280;26984;59.928;30.306;2023-02-15T05:17:55;102456.81;;;2.12;100.00
41250;BME280;26984;59.928;30.306;2023-02-15T05:20:23;102450.16;;;2.07;100.00
41250;BME280;26984;59.928;30.306;2023-02-15T05:22:52;102450.03;;;2.08;100.00
41250;BME280;26984;59.928;30.306;2023-02-15T05:25:20;102452.72;;;2.20;100.00
41250;BME280;26984;59.928;30.306;2023-02-15T05:28:07;102447.31;;;2.21;100.00
41250;BME280;26984;59.928;30.306;2023-02-15T05:30:47;102457.44;;;2.27;100.00
41250;BME280;26984;59.928;30.306;2023-02-15T05:33:14;102464.72;;;2.36;100.00
41250;BME280;26984;59.928;30.306;2023-02-15T05:35:42;102456.63;;;2.38;100.00
41250;BME280;26984;59.928;30.306;2023-02-15T05:38:09;102459.41;;;2.36;100.00
41250;BME280;26984;59.928;30.306;2023-02-15T05:40:37;102458.44;;;2.37;100.00
41250;BME280;26984;59.928;30.306;2023-02-15T05:43:06;102455.09;;;2.47;100.00
41250;BME280;26984;59.928;30.306;2023-02-15T05:45:33;102442.63;;;2.47;100.00
41250;BME280;26984;59.928;30.306;2023-02-15T05:48:01;102451.69;;;2.45;100.00
41250;BME280;26984;59.928;30.306;2023-02-15T05:50:28;102446.97;;;2.48;100.00
41250;BME280;26984;59.928;30.306;2023-02-15T05:52:58;102439.25;;;2.56;100.00
41250;BME280;26984;59.928;30.306;2023-02-15T05:55:26;102444.44;;;2.58;99.55
41250;BME280;26984;59.928;30.306;2023-02-15T05:57:53;102444.59;;;2.56;100.00
41250;BME280;26984;59.928;30.306;2023-02-15T06:00:22;102445.75;;;2.52;100.00
41250;BME280;26984;59.928;30.306;2023-02-15T06:02:51;102445.16;;;2.49;100.00
41250;BME280;26984;59.928;30.306;2023-02-15T06:05:18;102446.63;;;2.53;100.00
41250;BME280;26984;59.928;30.306;2023-02-15T06:07:45;102445.44;;;2.57;100.00
41250;BME280;26984;59.928;30.306;2023-02-15T06:10:13;102437.31;;;2.58;100.00
41250;BME280;26984;59.928;30.306;2023-02-15T06:12:40;102443.75;;;2.67;100.00
41250;BME280;26984;59.928;30.306;2023-02-15T06:15:08;102451.47;;;2.70;99.58
41250;BME280;26984;59.928;30.306;2023-02-15T06:17:37;102447.59;;;2.63;99.45
41250;BME280;26984;59.928;30.306;2023-02-15T06:20:05;102451.13;;;2.63;99.63
41250;BME280;26984;59.928;30.306;2023-02-15T06:22:32;102445.44;;;2.57;100.00
41250;BME280;26984;59.928;30.306;2023-02-15T06:25:00;102441.78;;;2.58;100.00
41250;BME280;26984;59.928;30.306;2023-02-15T06:27:27;102440.72;;;2.60;100.00
41250;BME280;26984;59.928;30.306;2023-02-15T06:29:54;102440.34;;;2.65;100.00
41250;BME280;26984;59.928;30.306;2023-02-15T06:32:22;102446.13;;;2.70;100.00
41250;BME280;26984;59.928;30.306;2023-02-15T06:34:51;102450.50;;;2.71;100.00
41250;BME280;26984;59.928;30.306;2023-02-15T06:37:18;102453.03;;;2.73;100.00
41250;BME280;26984;59.928;30.306;2023-02-15T06:39:46;102444.22;;;2.72;100.00
41250;BME280;26984;59.928;30.306;2023-02-15T06:42:14;102449.16;;;2.77;100.00
41250;BME280;26984;59.928;30.306;2023-02-15T06:44:43;102455.34;;;2.77;100.00
41250;BME280;26984;59.928;30.306;2023-02-15T06:47:11;102460.31;;;2.82;100.00
41250;BME280;26984;59.928;30.306;2023-02-15T06:49:38;102459.19;;;2.84;100.00
41250;BME280;26984;59.928;30.306;2023-02-15T06:52:07;102459.09;;;2.86;100.00
41250;BME280;26984;59.928;30.306;2023-02-15T06:54:35;102463.22;;;2.90;100.00
41250;BME280;26984;59.928;30.306;2023-02-15T06:57:02;102457.41;;;2.96;100.00
41250;BME280;26984;59.928;30.306;2023-02-15T06:59:30;102453.63;;;2.99;100.00
41250;BME280;26984;59.928;30.306;2023-02-15T07:01:57;102453.38;;;3.02;100.00
41250;BME280;26984;59.928;30.306;2023-02-15T07:04:25;102457.63;;;3.04;100.00
41250;BME280;26984;59.928;30.306;2023-02-15T07:06:54;102458.47;;;3.05;100.00
41250;BME280;26984;59.928;30.306;2023-02-15T07:09:23;102453.88;;;3.07;100.00
41250;BME280;26984;59.928;30.306;2023-02-15T07:11:50;102448.31;;;3.10;100.00
41250;BME280;26984;59.928;30.306;2023-02-15T07:14:35;102452.91;;;3.08;99.62
41250;BME280;26984;59.928;30.306;2023-02-15T07:17:03;102454.84;;;3.06;99.88
41250;BME280;26984;59.928;30.306;2023-02-15T07:19:30;102461.88;;;3.07;99.44
41250;BME280;26984;59.928;30.306;2023-02-15T07:21:58;102462.81;;;3.06;99.70
41250;BME280;26984;59.928;30.306;2023-02-15T07:24:27;102461.75;;;3.08;99.92
41250;BME280;26984;59.928;30.306;2023-02-15T07:26:54;102464.91;;;3.14;100.00
41250;BME280;26984;59.928;30.306;2023-02-15T07:29:23;102466.94;;;3.21;100.00
41250;BME280;26984;59.928;30.306;2023-02-15T07:31:50;102463.66;;;3.29;100.00
41250;BME280;26984;59.928;30.306;2023-02-15T07:34:18;102460.00;;;3.30;99.13
41250;BME280;26984;59.928;30.306;2023-02-15T07:36:45;102462.56;;;3.31;99.09
41250;BME280;26984;59.928;30.306;2023-02-15T07:39:13;102463.63;;;3.40;99.43
41250;BME280;26984;59.928;30.306;2023-02-15T07:41:41;102461.69;;;3.42;99.03
41250;BME280;26984;59.928;30.306;2023-02-15T07:44:11;102467.63;;;3.46;98.86
41250;BME280;26984;59.928;30.306;2023-02-15T07:46:39;102470.50;;;3.54;98.17
41250;BME280;26984;59.928;30.306;2023-02-15T07:49:07;102467.09;;;3.52;98.06
41250;BME280;26984;59.928;30.306;2023-02-15T07:51:34;102468.81;;;3.53;98.15
41250;BME280;26984;59.928;30.306;2023-02-15T07:54:02;102476.56;;;3.56;98.79
41250;BME280;26984;59.928;30.306;2023-02-15T07:56:29;102475.34;;;3.60;97.99
41250;BME280;26984;59.928;30.306;2023-02-15T07:59:00;102475.34;;;3.60;97.82
41250;BME280;26984;59.928;30.306;2023-02-15T08:01:30;102474.34;;;3.61;98.65
41250;BME280;26984;59.928;30.306;2023-02-15T08:03:57;102472.16;;;3.66;98.92
41250;BME280;26984;59.928;30.306;2023-02-15T08:06:25;102480.88;;;3.68;99.14
41250;BME280;26984;59.928;30.306;2023-02-15T08:08:53;102475.06;;;3.74;97.62
41250;BME280;26984;59.928;30.306;2023-02-15T08:11:21;102477.19;;;3.80;98.79
41250;BME280;26984;59.928;30.306;2023-02-15T08:13:55;102478.06;;;3.81;97.46
41250;BME280;26984;59.928;30.306;2023-02-15T08:16:27;102485.66;;;3.86;98.04
41250;BME280;26984;59.928;30.306;2023-02-15T08:18:55;102482.88;;;3.87;97.98
41250;BME280;26984;59.928;30.306;2023-02-15T08:21:24;102482.50;;;3.92;97.42
41250;BME280;26984;59.928;30.306;2023-02-15T08:23:52;102478.59;;;3.96;97.07
41250;BME280;26984;59.928;30.306;2023-02-15T08:26:20;102478.06;;;4.02;97.40
41250;BME280;26984;59.928;30.306;2023-02-15T08:28:47;102480.28;;;3.97;95.53
41250;BME280;26984;59.928;30.306;2023-02-15T08:31:16;102480.53;;;3.94;96.60
41250;BME280;26984;59.928;30.306;2023-02-15T08:33:46;102480.88;;;4.00;96.08
41250;BME280;26984;59.928;30.306;2023-02-15T08:36:15;102478.47;;;3.97;94.56
41250;BME280;26984;59.928;30.306;2023-02-15T08:38:42;102473.38;;;3.94;95.05
41250;BME280;26984;59.928;30.306;2023-02-15T08:41:12;102465.28;;;3.96;94.27
41250;BME280;26984;59.928;30.306;2023-02-15T08:43:40;102476.19;;;3.93;95.58
41250;BME280;26984;59.928;30.306;2023-02-15T08:46:08;102476.63;;;3.98;94.17
41250;BME280;26984;59.928;30.306;2023-02-15T08:48:35;102473.91;;;3.88;95.44
41250;BME280;26984;59.928;30.306;2023-02-15T08:51:05;102471.31;;;3.98;96.08
41250;BME280;26984;59.928;30.306;2023-02-15T08:53:33;102477.38;;;4.00;96.20
41250;BME280;26984;59.928;30.306;2023-02-15T08:56:01;102479.06;;;4.01;95.24
41250;BME280;26984;59.928;30.306;2023-02-15T08:58:28;102474.06;;;4.07;95.41
41250;BME280;26984;59.928;30.306;2023-02-15T09:00:57;102473.66;;;4.12;95.74
41250;BME280;26984;59.928;30.306;2023-02-15T09:03:24;102468.53;;;4.20;96.23
41250;BME280;26984;59.928;30.306;2023-02-15T09:05:56;102469.31;;;4.32;95.42
41250;BME280;26984;59.928;30.306;2023-02-15T09:08:25;102461.75;;;4.37;95.11
41250;BME280;26984;59.928;30.306;2023-02-15T09:10:52;102465.28;;;4.38;94.00
41250;BME280;26984;59.928;30.306;2023-02-15T09:13:20;102468.16;;;4.46;95.12
41250;BME280;26984;59.928;30.306;2023-02-15T09:15:47;102470.75;;;4.57;94.48
41250;BME280;26984;59.928;30.306;2023-02-15T09:18:15;102464.47;;;4.68;94.00
41250;BME280;26984;59.928;30.306;2023-02-15T09:20:43;102459.88;;;4.79;92.68
41250;BME280;26984;59.928;30.306;2023-02-15T09:23:11;102461.44;;;4.82;92.05
41250;BME280;26984;59.928;30.306;2023-02-15T09:25:41;102456.09;;;4.82;92.02
41250;BME280;26984;59.928;30.306;2023-02-15T09:28:09;102456.41;;;4.89;91.32
41250;BME280;26984;59.928;30.306;2023-02-15T09:30:36;102455.31;;;4.91;91.30
41250;BME280;26984;59.928;30.306;2023-02-15T09:33:04;102458.69;;;4.93;90.59
41250;BME280;26984;59.928;30.306;2023-02-15T09:35:31;102454.91;;;4.96;91.15
41250;BME280;26984;59.928;30.306;2023-02-15T09:37:59;102458.72;;;5.03;91.81
41250;BME280;26984;59.928;30.306;2023-02-15T09:40:27;102454.38;;;5.12;91.47
41250;BME280;26984;59.928;30.306;2023-02-15T09:43:04;102454.16;;;5.24;91.62
41250;BME280;26984;59.928;30.306;2023-02-15T09:45:42;102450.78;;;5.32;90.92
41250;BME280;26984;59.928;30.306;2023-02-15T09:50:59;102442.22;;;5.38;90.31
41250;BME280;26984;59.928;30.306;2023-02-15T09:53:37;102457.84;;;5.43;90.18
41250;BME280;26984;59.928;30.306;2023-02-15T09:56:10;102458.81;;;5.42;90.36
41250;BME280;26984;59.928;30.306;2023-02-15T09:58:46;102462.91;;;5.46;89.50
41250;BME280;26984;59.928;30.306;2023-02-15T10:01:17;102462.34;;;5.42;89.47
41250;BME280;26984;59.928;30.306;2023-02-15T10:03:52;102462.06;;;5.45;89.91
41250;BME280;26984;59.928;30.306;2023-02-15T10:06:26;102464.16;;;5.42;89.86
41250;BME280;26984;59.928;30.306;2023-02-15T10:09:03;102464.72;;;5.36;89.09
41250;BME280;26984;59.928;30.306;2023-02-15T10:11:39;102456.00;;;5.34;89.21
41250;BME280;26984;59.928;30.306;2023-02-15T10:14:25;102457.84;;;5.43;87.58
41250;BME280;26984;59.928;30.306;2023-02-15T10:17:06;102454.88;;;5.36;88.42
41250;BME280;26984;59.928;30.306;2023-02-15T10:19:39;102460.38;;;5.44;89.06
41250;BME280;26984;59.928;30.306;2023-02-15T10:22:15;102448.72;;;5.55;87.80
41250;BME280;26984;59.928;30.306;2023-02-15T10:25:01;102446.63;;;5.59;87.83
41250;BME280;26984;59.928;30.306;2023-02-15T10:27:38;102445.75;;;5.58;85.88
41250;BME280;26984;59.928;30.306;2023-02-15T10:30:12;102447.16;;;5.43;86.62
41250;BME280;26984;59.928;30.306;2023-02-15T10:32:43;102442.91;;;5.31;87.11
41250;BME280;26984;59.928;30.306;2023-02-15T10:35:15;102432.47;;;5.18;88.44
41250;BME280;26984;59.928;30.306;2023-02-15T10:37:53;102434.69;;;5.03;89.84
41250;BME280;26984;59.928;30.306;2023-02-15T10:40:28;102432.41;;;4.98;89.39
41250;BME280;26984;59.928;30.306;2023-02-15T10:43:05;102436.09;;;4.76;91.33
41250;BME280;26984;59.928;30.306;2023-02-15T10:45:39;102440.03;;;4.72;92.17
41250;BME280;26984;59.928;30.306;2023-02-15T10:48:18;102437.34;;;4.63;93.15
41250;BME280;26984;59.928;30.306;2023-02-15T10:50:49;102434.94;;;4.60;93.58
41250;BME280;26984;59.928;30.306;2023-02-15T10:53:26;102428.50;;;4.72;94.13
41250;BME280;26984;59.928;30.306;2023-02-15T10:56:03;102429.56;;;4.90;93.33
41250;BME280;26984;59.928;30.306;2023-02-15T10:58:37;102427.78;;;5.00;92.09
41250;BME280;26984;59.928;30.306;2023-02-15T11:01:12;102414.31;;;5.02;90.97
41250;BME280;26984;59.928;30.306;2023-02-15T11:03:46;102415.81;;;4.95;91.42
41250;BME280;26984;59.928;30.306;2023-02-15T11:06:18;102423.94;;;4.93;92.21
41250;BME280;26984;59.928;30.306;2023-02-15T11:08:47;102424.84;;;5.03;92.42
41250;BME280;26984;59.928;30.306;2023-02-15T11:11:19;102422.88;;;5.06;91.63
41250;BME280;26984;59.928;30.306;2023-02-15T11:13:49;102415.25;;;5.01;92.44
41250;BME280;26984;59.928;30.306;2023-02-15T11:16:22;102421.06;;;5.06;92.67
41250;BME280;26984;59.928;30.306;2023-02-15T11:18:53;102420.22;;;5.15;92.87
41250;BME280;26984;59.928;30.306;2023-02-15T11:21:22;102419.25;;;5.26;91.55
41250;BME280;26984;59.928;30.306;2023-02-15T11:23:51;102427.56;;;5.23;90.76
41250;BME280;26984;59.928;30.306;2023-02-15T11:26:19;102414.91;;;5.25;90.81
41250;BME280;26984;59.928;30.306;2023-02-15T11:28:49;102426.44;;;5.25;90.89
41250;BME280;26984;59.928;30.306;2023-02-15T11:31:20;102429.66;;;5.29;91.51
41250;BME280;26984;59.928;30.306;2023-02-15T11:33:51;102426.19;;;5.38;91.33
41250;BME280;26984;59.928;30.306;2023-02-15T11:36:21;102416.91;;;5.42;91.04
41250;BME280;26984;59.928;30.306;2023-02-15T11:38:52;102420.97;;;5.46;91.08
41250;BME280;26984;59.928;30.306;2023-02-15T11:41:24;102427.59;;;5.42;90.87
41250;BME280;26984;59.928;30.306;2023-02-15T11:43:53;102422.25;;;5.42;90.74
41250;BME280;26984;59.928;30.306;2023-02-15T11:46:23;102419.28;;;5.36;91.18
41250;BME280;26984;59.928;30.306;2023-02-15T11:48:52;102417.19;;;5.39;91.13
41250;BME280;26984;59.928;30.306;2023-02-15T11:51:20;102408.59;;;5.36;91.02
41250;BME280;26984;59.928;30.306;2023-02-15T11:53:48;102410.56;;;5.34;91.83
41250;BME280;26984;59.928;30.306;2023-02-15T11:56:17;102410.56;;;5.43;92.10
41250;BME280;26984;59.928;30.306;2023-02-15T11:58:45;102408.31;;;5.58;92.10
41250;BME280;26984;59.928;30.306;2023-02-15T12:01:15;102406.19;;;5.62;91.81
41250;BME280;26984;59.928;30.306;2023-02-15T12:03:46;102405.09;;;5.64;91.76
41250;BME280;26984;59.928;30.306;2023-02-15T12:06:23;102413.41;;;5.71;91.29
41250;BME280;26984;59.928;30.306;2023-02-15T12:08:53;102401.16;;;5.59;91.54
41250;BME280;26984;59.928;30.306;2023-02-15T12:11:25;102403.09;;;5.47;91.99
41250;BME280;26984;59.928;30.306;2023-02-15T12:13:54;102400.84;;;5.33;92.77
41250;BME280;26984;59.928;30.306;2023-02-15T12:16:22;102403.09;;;5.27;93.64
41250;BME280;26984;59.928;30.306;2023-02-15T12:18:50;102400.09;;;5.11;94.22
41250;BME280;26984;59.928;30.306;2023-02-15T12:21:25;102400.94;;;5.02;95.03
41250;BME280;26984;59.928;30.306;2023-02-15T12:23:54;102402.75;;;5.01;95.86
41250;BME280;26984;59.928;30.306;2023-02-15T12:26:25;102401.22;;;4.99;95.78
41250;BME280;26984;59.928;30.306;2023-02-15T12:28:54;102406.56;;;4.99;95.09
41250;BME280;26984;59.928;30.306;2023-02-15T12:31:26;102404.69;;;4.90;94.96
41250;BME280;26984;59.928;30.306;2023-02-15T12:33:54;102404.38;;;4.83;95.74
41250;BME280;26984;59.928;30.306;2023-02-15T12:36:25;102398.47;;;4.79;95.46
41250;BME280;26984;59.928;30.306;2023-02-15T12:39:03;102400.88;;;4.83;95.57
41250;BME280;26984;59.928;30.306;2023-02-15T12:41:31;102405.63;;;4.79;95.99
41250;BME280;26984;59.928;30.306;2023-02-15T12:44:03;102400.88;;;4.83;95.58
41250;BME280;26984;59.928;30.306;2023-02-15T12:46:31;102406.75;;;4.76;95.44
41250;BME280;26984;59.928;30.306;2023-02-15T12:49:06;102410.66;;;4.72;96.04
41250;BME280;26984;59.928;30.306;2023-02-15T12:54:32;102405.16;;;4.64;96.41
41250;BME280;26984;59.928;30.306;2023-02-15T12:57:12;102402.34;;;4.66;96.22
41250;BME280;26984;59.928;30.306;2023-02-15T12:59:47;102413.31;;;4.63;96.71
41250;BME280;26984;59.928;30.306;2023-02-15T13:02:16;102409.19;;;4.59;97.18
41250;BME280;26984;59.928;30.306;2023-02-15T13:04:47;102415.84;;;4.64;97.39
41250;BME280;26984;59.928;30.306;2023-02-15T13:07:16;102414.28;;;4.62;97.38
41250;BME280;26984;59.928;30.306;2023-02-15T13:09:45;102423.59;;;4.67;97.30
41250;BME280;26984;59.928;30.306;2023-02-15T13:12:16;102423.91;;;4.74;96.25